Time;durP1;ratioP1;P1;durP2;ratioP2;P2;SDS_P1;SDS_P2;PMS_P1;PMS_P2;Temp;Humidity;BMP_temperature;BMP_pressure;BME280_temperature;BME280_humidity;BME280_pressure;Samples;Min_cycle;Max_cycle;Signal;HPM_P1;HPM_P2
2021/11/30 00:00:16;;;;;;;3.95;1.80;;;1.80;99.90;;;;;;4972769;28;20699;-80
2021/11/30 00:08:44;;;;;;;3.75;1.70;;;1.80;99.90;;;;;;4993765;28;20081;-85
2021/11/30 00:11:13;;;;;;;3.80;1.67;;;1.80;99.90;;;;;;4994362;28;20065;-86
2021/11/30 00:13:42;;;;;;;3.38;1.92;;;1.80;99.90;;;;;;4997855;28;20292;-82
2021/11/30 00:16:11;;;;;;;4.03;1.83;;;1.80;99.90;;;;;;4990329;28;20082;-80
2021/11/30 00:18:40;;;;;;;3.42;1.70;;;1.80;99.90;;;;;;4997517;28;20074;-83
2021/11/30 00:21:13;;;;;;;3.67;1.75;;;1.80;99.90;;;;;;4995971;28;20057;-82
2021/11/30 00:23:40;;;;;;;3.50;1.50;;;1.80;99.90;;;;;;4997344;28;20061;-80
2021/11/30 00:26:09;;;;;;;2.88;1.60;;;1.90;99.90;;;;;;4994623;28;20154;-81
2021/11/30 00:28:37;;;;;;;3.53;1.70;;;1.90;99.90;;;;;;4996553;28;20112;-82
2021/11/30 00:31:06;;;;;;;3.40;1.70;;;1.80;99.90;;;;;;4994771;28;20078;-79
2021/11/30 00:33:33;;;;;;;3.10;1.40;;;1.80;99.90;;;;;;4995693;28;20102;-80
2021/11/30 00:36:01;;;;;;;3.50;1.70;;;1.80;99.90;;;;;;4993691;28;20082;-81
2021/11/30 00:38:28;;;;;;;3.53;1.50;;;1.80;99.90;;;;;;4995132;28;20086;-82
2021/11/30 00:40:55;;;;;;;3.60;1.60;;;1.80;99.90;;;;;;4995706;28;20047;-78
2021/11/30 00:43:33;;;;;;;3.33;1.75;;;1.80;99.90;;;;;;4995903;28;20054;-78
2021/11/30 00:46:09;;;;;;;3.80;1.40;;;1.80;99.90;;;;;;4993758;28;20070;-80
2021/11/30 00:48:38;;;;;;;4.07;1.73;;;1.90;99.90;;;;;;4980428;28;20050;-81
2021/11/30 00:51:13;;;;;;;3.67;1.85;;;1.90;99.90;;;;;;4985466;28;20046;-81
2021/11/30 00:53:45;;;;;;;3.42;1.63;;;1.90;99.90;;;;;;4977866;28;20138;-80
2021/11/30 00:56:13;;;;;;;4.32;1.85;;;1.80;99.90;;;;;;4995762;28;20046;-79
2021/11/30 00:58:43;;;;;;;3.50;1.70;;;1.90;99.90;;;;;;5000096;28;20110;-82
2021/11/30 01:01:10;;;;;;;3.67;1.58;;;1.90;99.90;;;;;;4982125;28;20142;-81
2021/11/30 01:03:38;;;;;;;3.13;1.52;;;1.80;99.90;;;;;;4978949;28;20519;-81
2021/11/30 01:06:05;;;;;;;5.25;1.80;;;1.80;99.90;;;;;;4980175;28;20050;-79
2021/11/30 01:08:32;;;;;;;3.35;1.77;;;1.90;99.90;;;;;;4996954;28;20149;-82
2021/11/30 01:11:00;;;;;;;5.30;2.13;;;1.90;99.90;;;;;;5000520;28;20078;-78
2021/11/30 01:13:29;;;;;;;3.10;1.70;;;1.90;99.90;;;;;;5000316;28;20050;-82
2021/11/30 01:15:58;;;;;;;3.95;1.90;;;1.90;99.90;;;;;;5000823;28;20058;-82
2021/11/30 01:18:30;;;;;;;4.05;1.80;;;2.00;99.90;;;;;;4999775;28;20081;-80
2021/11/30 01:20:58;;;;;;;3.60;1.77;;;1.90;99.90;;;;;;4999514;28;20042;-79
2021/11/30 01:23:26;;;;;;;4.25;1.60;;;2.00;99.90;;;;;;4999733;28;20166;-83
2021/11/30 01:25:53;;;;;;;3.85;1.83;;;2.00;99.90;;;;;;4998934;28;20074;-80
2021/11/30 01:28:20;;;;;;;4.20;1.80;;;2.00;99.90;;;;;;4999424;28;20051;-82
2021/11/30 01:30:48;;;;;;;4.70;1.80;;;2.00;99.90;;;;;;4999630;28;20070;-80
2021/11/30 01:33:17;;;;;;;4.32;2.25;;;2.00;99.90;;;;;;4999111;28;20050;-80
2021/11/30 01:35:45;;;;;;;3.25;1.75;;;2.10;99.90;;;;;;4999804;28;20073;-83
2021/11/30 01:38:16;;;;;;;3.92;1.92;;;2.10;99.90;;;;;;4998451;28;20070;-79
2021/11/30 01:40:43;;;;;;;5.63;2.00;;;2.10;99.90;;;;;;4996393;28;20058;-82
2021/11/30 01:43:16;;;;;;;3.50;1.95;;;2.10;99.90;;;;;;4998861;28;20070;-82
2021/11/30 01:45:57;;;;;;;3.60;1.73;;;2.10;99.90;;;;;;4997514;28;20125;-83
2021/11/30 01:51:11;;;;;;;3.40;1.63;;;2.10;99.90;;;;;;4991864;28;20058;-81
2021/11/30 01:53:41;;;;;;;4.05;1.80;;;2.10;99.90;;;;;;4992856;28;20058;-80
2021/11/30 01:56:11;;;;;;;4.07;2.03;;;2.10;99.90;;;;;;4993380;28;20085;-79
2021/11/30 01:58:38;;;;;;;4.05;1.95;;;2.10;99.90;;;;;;4993026;28;20082;-81
2021/11/30 02:01:08;;;;;;;3.83;1.90;;;2.10;99.90;;;;;;4996606;28;20106;-80
2021/11/30 02:03:42;;;;;;;3.95;2.33;;;2.10;99.90;;;;;;4999416;28;20562;-81
2021/11/30 02:06:11;;;;;;;3.30;1.95;;;2.20;99.90;;;;;;4998242;28;20081;-80
2021/11/30 02:08:40;;;;;;;4.13;2.22;;;2.20;99.90;;;;;;4998968;28;20467;-81
2021/11/30 02:11:12;;;;;;;4.22;2.10;;;2.20;99.90;;;;;;4999313;28;20057;-82
2021/11/30 02:13:42;;;;;;;4.57;1.90;;;2.20;99.90;;;;;;4999377;28;20061;-79
2021/11/30 02:16:11;;;;;;;5.50;2.25;;;2.20;99.90;;;;;;4999051;28;20133;-81
2021/11/30 02:18:47;;;;;;;3.83;1.92;;;2.20;99.90;;;;;;4999614;28;20150;-80
2021/11/30 02:21:19;;;;;;;4.28;2.10;;;2.20;99.90;;;;;;4999973;28;20050;-81
2021/11/30 02:23:51;;;;;;;3.78;2.00;;;2.30;99.90;;;;;;5000297;28;20054;-80
2021/11/30 02:26:18;;;;;;;4.57;1.90;;;2.30;99.90;;;;;;5000892;28;20046;-80
2021/11/30 02:28:50;;;;;;;3.30;1.80;;;2.20;99.90;;;;;;5001626;28;20146;-81
2021/11/30 02:31:21;;;;;;;4.47;2.17;;;2.30;99.90;;;;;;5000396;28;20198;-80
2021/11/30 02:33:48;;;;;;;4.20;2.13;;;2.30;99.90;;;;;;5001232;28;20129;-80
2021/11/30 02:36:23;;;;;;;3.85;1.98;;;2.30;99.90;;;;;;5000387;28;20141;-82
2021/11/30 02:38:50;;;;;;;5.00;2.05;;;2.30;99.90;;;;;;5000061;28;20054;-80
2021/11/30 02:41:17;;;;;;;5.05;2.42;;;2.30;99.90;;;;;;5001319;28;20118;-79
2021/11/30 02:43:44;;;;;;;5.15;2.10;;;2.30;99.90;;;;;;5001844;28;20490;-79
2021/11/30 02:46:12;;;;;;;5.13;2.20;;;2.30;99.90;;;;;;5002386;28;20078;-77
2021/11/30 02:48:39;;;;;;;5.65;2.30;;;2.30;99.90;;;;;;5000988;28;20129;-78
2021/11/30 02:51:08;;;;;;;5.30;2.28;;;2.30;99.90;;;;;;4980712;28;20111;-79
2021/11/30 02:53:37;;;;;;;4.28;2.30;;;2.30;99.90;;;;;;4980667;28;20416;-81
2021/11/30 02:56:09;;;;;;;5.47;2.08;;;2.30;99.90;;;;;;4980983;28;20051;-80
2021/11/30 02:58:38;;;;;;;5.60;2.20;;;2.30;99.90;;;;;;4980900;28;20050;-81
2021/11/30 03:01:07;;;;;;;5.97;2.40;;;2.30;99.90;;;;;;4995159;28;20082;-79
2021/11/30 03:03:39;;;;;;;4.38;2.00;;;2.30;99.90;;;;;;5000005;28;20050;-79
2021/11/30 03:06:06;;;;;;;4.50;2.30;;;2.30;99.90;;;;;;5000712;28;20130;-79
2021/11/30 03:08:40;;;;;;;6.30;2.20;;;2.40;99.90;;;;;;5000608;28;20118;-80
2021/11/30 03:11:08;;;;;;;5.40;2.20;;;2.30;99.90;;;;;;4999466;28;20476;-82
2021/11/30 03:13:36;;;;;;;6.78;2.55;;;2.30;99.90;;;;;;4998255;28;20097;-79
2021/11/30 03:16:07;;;;;;;5.28;2.00;;;2.30;99.90;;;;;;4999397;28;20499;-79
2021/11/30 03:18:37;;;;;;;4.72;2.20;;;2.30;99.90;;;;;;4999578;28;20112;-79
2021/11/30 03:21:05;;;;;;;5.05;1.90;;;2.30;99.90;;;;;;4998465;28;20053;-80
2021/11/30 03:23:32;;;;;;;4.45;2.20;;;2.30;99.90;;;;;;4999030;28;20456;-80
2021/11/30 03:26:01;;;;;;;4.95;2.00;;;2.30;99.90;;;;;;4999146;28;20109;-81
2021/11/30 03:28:28;;;;;;;6.03;2.10;;;2.30;99.90;;;;;;4998625;28;20105;-80
2021/11/30 03:31:01;;;;;;;4.25;1.70;;;2.30;99.90;;;;;;4998686;28;20110;-80
2021/11/30 03:36:12;;;;;;;;;;;2.30;99.90;;;;;;4999822;28;20056;-78
2021/11/30 03:38:39;;;;;;;3.88;1.63;;;2.30;99.90;;;;;;4997992;28;20363;-82
2021/11/30 03:41:09;;;;;;;5.82;2.00;;;2.30;99.90;;;;;;4997470;28;20170;-80
2021/11/30 03:43:38;;;;;;;5.40;2.20;;;2.30;99.90;;;;;;4995788;28;20125;-80
2021/11/30 03:46:07;;;;;;;4.40;1.90;;;2.30;99.90;;;;;;4995936;28;20054;-79
2021/11/30 03:48:34;;;;;;;3.55;1.88;;;2.30;99.90;;;;;;4995920;28;20530;-80
2021/11/30 03:51:02;;;;;;;4.50;1.80;;;2.30;99.90;;;;;;4996955;28;20173;-80
2021/11/30 03:53:29;;;;;;;5.60;2.10;;;2.30;99.90;;;;;;4998052;28;20050;-82
2021/11/30 03:55:58;;;;;;;4.60;2.75;;;2.30;99.90;;;;;;4998082;28;20118;-81
2021/11/30 03:58:26;;;;;;;5.35;2.00;;;2.30;99.90;;;;;;4999701;28;20415;-80
2021/11/30 04:00:54;;;;;;;5.80;1.80;;;2.20;99.90;;;;;;4999938;28;20047;-82
2021/11/30 04:03:22;;;;;;;3.80;1.90;;;2.20;99.90;;;;;;4996827;28;20551;-80
2021/11/30 04:05:50;;;;;;;5.15;2.05;;;2.20;99.90;;;;;;4993840;28;20054;-80
2021/11/30 04:08:17;;;;;;;6.80;2.20;;;2.30;99.90;;;;;;4975496;28;20066;-79
2021/11/30 04:10:45;;;;;;;5.28;1.98;;;2.30;99.90;;;;;;4994199;28;20058;-79
2021/11/30 04:13:12;;;;;;;5.82;2.10;;;2.30;99.90;;;;;;4993108;28;20163;-77
2021/11/30 04:15:41;;;;;;;4.65;2.05;;;2.30;99.90;;;;;;4993105;28;20447;-79
2021/11/30 04:18:08;;;;;;;4.38;2.10;;;2.30;99.90;;;;;;4994426;28;20114;-81
2021/11/30 04:20:35;;;;;;;5.03;2.10;;;2.30;99.90;;;;;;4993436;28;20141;-78
2021/11/30 04:23:02;;;;;;;4.47;1.90;;;2.30;99.90;;;;;;4992612;28;20137;-76
2021/11/30 04:25:32;;;;;;;4.82;2.50;;;2.30;99.90;;;;;;4993510;28;20047;-82
2021/11/30 04:28:07;;;;;;;5.65;2.20;;;2.30;99.90;;;;;;4993735;28;20129;-75
2021/11/30 04:30:35;;;;;;;6.22;2.00;;;2.30;99.90;;;;;;4994114;28;20392;-79
2021/11/30 04:33:04;;;;;;;4.85;1.70;;;2.30;99.90;;;;;;4994423;28;20077;-77
2021/11/30 04:35:32;;;;;;;4.68;1.70;;;2.30;99.90;;;;;;4994617;28;20050;-75
2021/11/30 04:37:59;;;;;;;4.45;1.70;;;2.30;99.90;;;;;;4994209;28;20502;-76
2021/11/30 04:40:26;;;;;;;3.38;1.50;;;2.30;99.90;;;;;;4993977;28;20137;-81
2021/11/30 04:42:53;;;;;;;5.47;1.48;;;2.30;99.90;;;;;;4993492;28;20141;-78
2021/11/30 04:45:25;;;;;;;4.85;1.60;;;2.30;99.90;;;;;;4975486;28;20054;-78
2021/11/30 04:47:55;;;;;;;3.53;1.50;;;2.30;99.90;;;;;;4992883;28;20076;-79
2021/11/30 04:50:26;;;;;;;5.10;1.63;;;2.30;99.90;;;;;;4993182;28;20050;-81
2021/11/30 04:52:56;;;;;;;3.63;1.40;;;2.30;99.90;;;;;;4992815;28;20046;-81
2021/11/30 04:55:32;;;;;;;3.55;1.50;;;2.30;99.90;;;;;;4990604;28;20050;-80
2021/11/30 04:58:02;;;;;;;2.92;1.17;;;2.30;99.90;;;;;;4991392;28;20058;-77
2021/11/30 05:00:31;;;;;;;5.30;1.63;;;2.40;99.90;;;;;;4972283;28;20161;-78
2021/11/30 05:02:59;;;;;;;5.10;1.40;;;2.40;99.90;;;;;;4983966;28;20141;-76
2021/11/30 05:05:27;;;;;;;4.85;1.58;;;2.40;99.90;;;;;;4994330;28;20137;-76
2021/11/30 05:07:54;;;;;;;7.15;1.40;;;2.40;99.90;;;;;;4986932;28;20558;-75
2021/11/30 05:10:21;;;;;;;3.17;1.25;;;2.40;99.90;;;;;;4975193;28;20081;-75
2021/11/30 05:12:52;;;;;;;4.50;1.50;;;2.40;99.90;;;;;;4985166;28;20173;-79
2021/11/30 05:15:19;;;;;;;4.00;1.55;;;2.40;99.90;;;;;;4993030;28;20050;-77
2021/11/30 05:17:48;;;;;;;4.60;1.55;;;2.40;99.90;;;;;;4993889;28;20082;-74
2021/11/30 05:20:16;;;;;;;5.22;1.48;;;2.40;99.90;;;;;;4994281;28;20046;-74
2021/11/30 05:22:44;;;;;;;7.38;1.58;;;2.40;99.90;;;;;;4994800;28;20074;-78
2021/11/30 05:25:13;;;;;;;3.22;1.40;;;2.40;99.90;;;;;;4992692;28;20046;-80
2021/11/30 05:27:41;;;;;;;4.20;1.73;;;2.40;99.90;;;;;;4993806;28;20046;-80
2021/11/30 05:30:16;;;;;;;3.97;1.30;;;2.40;99.90;;;;;;4994608;28;20058;-81
2021/11/30 05:32:44;;;;;;;5.75;1.38;;;2.40;99.90;;;;;;4984473;28;20043;-82
2021/11/30 05:35:12;;;;;;;4.10;1.60;;;2.40;99.90;;;;;;4975607;28;20125;-79
2021/11/30 05:37:40;;;;;;;4.40;1.48;;;2.40;99.90;;;;;;4979081;28;20143;-81
2021/11/30 05:40:10;;;;;;;4.18;1.50;;;2.40;99.90;;;;;;4979853;28;20042;-78
2021/11/30 05:42:37;;;;;;;4.63;1.48;;;2.40;99.80;;;;;;4997458;28;20082;-79
2021/11/30 05:45:07;;;;;;;5.55;1.40;;;2.40;99.80;;;;;;4996808;28;20107;-85
2021/11/30 05:47:35;;;;;;;4.70;1.90;;;2.50;99.70;;;;;;4980587;28;20046;-79
2021/11/30 05:50:02;;;;;;;3.90;1.33;;;2.50;99.60;;;;;;4996903;28;20084;-80
2021/11/30 05:52:29;;;;;;;5.47;1.60;;;2.50;99.40;;;;;;4996757;28;20053;-82
2021/11/30 05:54:58;;;;;;;5.80;1.40;;;2.50;99.40;;;;;;4996795;28;20130;-81
2021/11/30 05:57:27;;;;;;;3.90;1.35;;;2.50;99.30;;;;;;4999619;28;20046;-78
2021/11/30 05:59:57;;;;;;;3.78;1.42;;;2.60;99.20;;;;;;4996792;28;20109;-78
2021/11/30 06:02:25;;;;;;;3.10;1.50;;;2.60;99.30;;;;;;4998332;28;20078;-80
2021/11/30 06:04:52;;;;;;;5.50;1.58;;;2.60;99.10;;;;;;4997836;28;20050;-81
2021/11/30 06:07:20;;;;;;;4.32;1.60;;;2.60;99.10;;;;;;4996661;28;20154;-81
2021/11/30 06:09:48;;;;;;;3.67;1.52;;;2.60;98.90;;;;;;4992802;28;20130;-80
2021/11/30 06:12:15;;;;;;;4.88;1.65;;;2.60;98.90;;;;;;4996139;28;20066;-79
2021/11/30 06:14:44;;;;;;;5.10;1.65;;;2.50;99.00;;;;;;4996090;28;20144;-80
2021/11/30 06:17:14;;;;;;;5.05;1.80;;;2.60;98.90;;;;;;4981503;28;20510;-81
2021/11/30 06:19:45;;;;;;;4.50;1.80;;;2.60;98.90;;;;;;4996613;28;20046;-79
2021/11/30 06:22:14;;;;;;;4.30;1.52;;;2.60;99.00;;;;;;4997293;28;20082;-79
2021/11/30 06:24:41;;;;;;;4.88;1.70;;;2.60;99.10;;;;;;4996722;28;20089;-77
2021/11/30 06:27:09;;;;;;;4.18;1.80;;;2.60;98.90;;;;;;5000910;28;20514;-79
2021/11/30 06:29:45;;;;;;;4.72;1.90;;;2.60;98.90;;;;;;5000987;28;20050;-78
2021/11/30 06:32:14;;;;;;;3.72;1.88;;;2.60;99.00;;;;;;4998759;28;20081;-79
2021/11/30 06:34:41;;;;;;;5.82;2.20;;;2.50;98.80;;;;;;4997311;28;20137;-80
2021/11/30 06:37:09;;;;;;;5.28;1.63;;;2.60;98.80;;;;;;4995107;28;20464;-79
2021/11/30 06:39:36;;;;;;;3.63;2.00;;;2.60;98.80;;;;;;4979703;28;20109;-79
2021/11/30 06:42:05;;;;;;;6.13;2.10;;;2.60;98.60;;;;;;4978922;28;20472;-80
2021/11/30 06:44:34;;;;;;;5.28;2.17;;;2.60;98.50;;;;;;4981271;28;20130;-81
2021/11/30 06:47:04;;;;;;;4.65;2.08;;;2.60;98.60;;;;;;4982005;28;20061;-79
2021/11/30 06:49:33;;;;;;;5.45;1.90;;;2.60;98.70;;;;;;4981951;28;20081;-77
2021/11/30 06:52:01;;;;;;;3.92;1.90;;;2.60;98.80;;;;;;4980733;28;20082;-77
2021/11/30 06:54:30;;;;;;;3.20;1.70;;;2.60;99.00;;;;;;4982506;28;20331;-77
2021/11/30 06:56:57;;;;;;;4.95;1.88;;;2.60;99.20;;;;;;4982614;28;20051;-78
2021/11/30 06:59:33;;;;;;;4.15;2.05;;;2.60;99.60;;;;;;4981713;28;20101;-78
2021/11/30 07:02:03;;;;;;;4.65;1.90;;;2.50;99.80;;;;;;4979543;28;20054;-78
2021/11/30 07:04:34;;;;;;;6.18;2.20;;;2.50;99.90;;;;;;4980569;28;20078;-78
2021/11/30 07:07:07;;;;;;;4.60;2.30;;;2.50;99.90;;;;;;4994463;28;20058;-80
2021/11/30 07:09:37;;;;;;;5.65;2.38;;;2.40;99.90;;;;;;4997706;28;20054;-79
2021/11/30 07:12:14;;;;;;;6.72;2.20;;;2.40;99.90;;;;;;4998512;28;20078;-79
2021/11/30 07:14:41;;;;;;;7.50;2.40;;;2.30;99.90;;;;;;4998763;28;20057;-81
2021/11/30 07:17:08;;;;;;;5.95;2.53;;;2.30;99.90;;;;;;4997696;28;20082;-79
2021/11/30 07:19:37;;;;;;;6.53;2.65;;;2.20;99.90;;;;;;4983713;28;20110;-81
2021/11/30 07:22:06;;;;;;;5.38;2.58;;;2.10;99.90;;;;;;4979266;28;20142;-80
2021/11/30 07:24:35;;;;;;;5.63;2.63;;;2.10;99.90;;;;;;4980649;28;20047;-82
2021/11/30 07:27:02;;;;;;;5.85;3.08;;;2.10;99.90;;;;;;4982452;28;20436;-82
2021/11/30 07:29:29;;;;;;;6.28;2.60;;;2.10;99.90;;;;;;4984326;28;20074;-82
2021/11/30 07:31:58;;;;;;;5.32;2.50;;;2.00;99.90;;;;;;5003528;28;20133;-80
2021/11/30 07:34:25;;;;;;;5.35;2.63;;;2.10;99.90;;;;;;4984655;28;20068;-80
2021/11/30 07:36:55;;;;;;;6.75;2.55;;;2.10;99.90;;;;;;4991440;28;20130;-78
2021/11/30 07:39:23;;;;;;;5.68;2.67;;;2.10;99.90;;;;;;5001587;28;20078;-80
2021/11/30 07:41:50;;;;;;;6.05;2.70;;;2.10;99.90;;;;;;4994348;28;20137;-82
2021/11/30 07:44:18;;;;;;;6.10;2.20;;;2.20;99.90;;;;;;4982811;28;20142;-80
2021/11/30 07:46:45;;;;;;;4.10;2.22;;;2.20;99.90;;;;;;4982381;28;20498;-83
2021/11/30 07:49:15;;;;;;;5.63;2.20;;;2.20;99.90;;;;;;4982532;28;20074;-83
2021/11/30 07:51:42;;;;;;;4.53;2.03;;;2.20;99.90;;;;;;4980986;28;20054;-84
2021/11/30 07:54:11;;;;;;;5.60;2.13;;;2.30;99.90;;;;;;4982043;28;20070;-84
2021/11/30 07:56:38;;;;;;;4.47;1.60;;;2.30;99.90;;;;;;4983653;28;20082;-84
2021/11/30 07:59:08;;;;;;;4.80;1.90;;;2.30;99.90;;;;;;4980478;28;20137;-84
2021/11/30 08:01:36;;;;;;;4.10;1.77;;;2.40;99.90;;;;;;4983297;28;20051;-82
2021/11/30 08:04:03;;;;;;;3.25;1.60;;;2.40;99.90;;;;;;4987280;28;20494;-83
2021/11/30 08:06:30;;;;;;;4.32;1.40;;;2.50;99.90;;;;;;5000469;28;20085;-86
2021/11/30 08:08:58;;;;;;;4.65;1.50;;;2.50;99.90;;;;;;4997385;28;20108;-81
2021/11/30 08:11:29;;;;;;;3.13;1.58;;;2.50;99.90;;;;;;4990985;28;20043;-81
2021/11/30 08:13:56;;;;;;;3.10;1.50;;;2.50;99.90;;;;;;4982065;28;20050;-81
2021/11/30 08:16:23;;;;;;;4.43;1.73;;;2.60;99.90;;;;;;4999224;28;20081;-81
2021/11/30 08:18:50;;;;;;;3.53;1.35;;;2.60;99.90;;;;;;5000063;28;20137;-81
2021/11/30 08:21:17;;;;;;;2.95;1.20;;;2.70;99.90;;;;;;4984636;28;20145;-81
2021/11/30 08:23:44;;;;;;;4.57;1.58;;;2.60;99.60;;;;;;4980882;28;20134;-82
2021/11/30 08:26:12;;;;;;;3.17;1.27;;;2.70;99.70;;;;;;4981294;28;20074;-80
2021/11/30 08:28:41;;;;;;;3.67;1.33;;;2.70;99.70;;;;;;4979356;28;20050;-80
2021/11/30 08:31:09;;;;;;;3.28;1.40;;;2.70;99.50;;;;;;4978902;28;20572;-85
2021/11/30 08:33:37;;;;;;;2.55;1.10;;;2.80;99.30;;;;;;4979766;28;20086;-91
2021/11/30 08:36:05;;;;;;;3.53;1.40;;;2.80;99.60;;;;;;4978427;28;20113;-80
2021/11/30 08:38:32;;;;;;;3.88;1.48;;;2.80;99.50;;;;;;4979229;28;20047;-81
2021/11/30 08:41:00;;;;;;;4.43;1.70;;;2.80;99.60;;;;;;4983775;28;20137;-80
2021/11/30 08:43:28;;;;;;;5.28;1.70;;;2.80;99.60;;;;;;4995228;28;20389;-80
2021/11/30 08:46:06;;;;;;;3.85;1.60;;;2.80;99.30;;;;;;4979816;28;20058;-81
2021/11/30 08:48:33;;;;;;;3.90;1.50;;;2.80;99.50;;;;;;4991840;28;20396;-80
2021/11/30 08:51:02;;;;;;;5.43;1.38;;;2.80;99.50;;;;;;4998728;28;20081;-79
2021/11/30 08:53:33;;;;;;;3.75;1.50;;;2.90;99.50;;;;;;4996749;28;20137;-81
2021/11/30 08:56:01;;;;;;;3.45;1.52;;;2.80;99.50;;;;;;4995208;28;20105;-79
2021/11/30 08:58:28;;;;;;;3.05;1.42;;;2.90;99.20;;;;;;4995071;28;20125;-79
2021/11/30 09:00:57;;;;;;;3.05;1.33;;;2.90;99.30;;;;;;4977105;28;20138;-79
2021/11/30 09:03:24;;;;;;;3.83;1.52;;;2.90;99.30;;;;;;4978673;28;20555;-86
2021/11/30 09:05:51;;;;;;;2.70;1.40;;;2.90;99.20;;;;;;4977394;28;20051;-83
2021/11/30 09:08:19;;;;;;;4.82;1.50;;;3.00;99.20;;;;;;4960355;28;20088;-81
2021/11/30 09:10:46;;;;;;;3.08;1.60;;;3.00;99.10;;;;;;4977355;28;20055;-79
2021/11/30 09:13:13;;;;;;;4.25;1.42;;;3.00;98.90;;;;;;4978829;28;20603;-81
2021/11/30 09:15:40;;;;;;;3.78;1.60;;;3.10;99.10;;;;;;4976902;28;20138;-79
2021/11/30 09:18:10;;;;;;;4.20;1.60;;;3.10;99.00;;;;;;4977510;28;20078;-81
2021/11/30 09:20:38;;;;;;;3.47;1.50;;;3.10;99.10;;;;;;4979292;28;20493;-88
2021/11/30 09:23:07;;;;;;;8.70;4.13;;;3.10;98.90;;;;;;4977981;28;20082;-85
2021/11/30 09:25:35;;;;;;;3.40;1.70;;;3.10;99.00;;;;;;4979400;28;20058;-83
2021/11/30 09:28:04;;;;;;;3.95;1.63;;;3.10;98.80;;;;;;4979984;28;20074;-87
2021/11/30 09:30:34;;;;;;;3.38;1.40;;;3.10;99.20;;;;;;4983208;28;20051;-81
2021/11/30 09:33:01;;;;;;;3.97;1.85;;;3.10;99.00;;;;;;4978106;28;20480;-81
2021/11/30 09:35:29;;;;;;;3.38;1.50;;;3.10;98.90;;;;;;4977801;28;20407;-81
2021/11/30 09:37:57;;;;;;;3.80;1.60;;;3.20;99.00;;;;;;4992606;28;20134;-84
2021/11/30 09:40:28;;;;;;;3.05;1.58;;;3.10;99.20;;;;;;4997869;28;20129;-80
2021/11/30 09:42:56;;;;;;;4.47;1.63;;;3.10;99.30;;;;;;4987277;28;20146;-80
2021/11/30 09:45:24;;;;;;;4.18;1.52;;;3.10;99.40;;;;;;4973866;28;20114;-82
2021/11/30 09:47:53;;;;;;;3.95;1.55;;;3.10;99.20;;;;;;4990739;28;20057;-82
2021/11/30 09:50:22;;;;;;;3.60;1.30;;;3.20;99.20;;;;;;4991437;28;20137;-84
2021/11/30 09:52:55;;;;;;;3.20;1.40;;;3.20;99.00;;;;;;4992334;28;20090;-80
2021/11/30 09:55:23;;;;;;;3.65;1.50;;;3.10;99.10;;;;;;4992345;28;20495;-82
2021/11/30 09:57:51;;;;;;;3.42;1.50;;;3.20;99.30;;;;;;4992131;28;20054;-81
2021/11/30 10:00:20;;;;;;;3.95;1.67;;;3.20;99.20;;;;;;4992560;28;20138;-81
2021/11/30 10:02:47;;;;;;;3.50;1.58;;;3.30;99.10;;;;;;4992307;28;20140;-82
2021/11/30 10:05:15;;;;;;;2.88;1.23;;;3.30;98.90;;;;;;4991383;28;20085;-82
2021/11/30 10:07:48;;;;;;;4.03;1.48;;;3.40;98.90;;;;;;4991475;28;20133;-84
2021/11/30 10:10:20;;;;;;;3.35;1.33;;;3.40;98.80;;;;;;4992118;28;20082;-80
2021/11/30 10:13:13;;;;;;;3.00;1.20;;;3.40;99.00;;;;;;4990610;28;20129;-81
2021/11/30 10:15:55;;;;;;;2.97;1.15;;;3.40;99.00;;;;;;4987906;28;20988;-82
2021/11/30 10:18:24;;;;;;;2.30;1.00;;;3.50;99.00;;;;;;4990277;28;20404;-80
2021/11/30 10:20:56;;;;;;;2.35;1.15;;;3.50;99.30;;;;;;4974763;28;20045;-82
2021/11/30 10:23:25;;;;;;;2.55;1.00;;;3.50;99.30;;;;;;4991104;28;20511;-82
2021/11/30 10:25:53;;;;;;;3.17;1.10;;;3.50;99.30;;;;;;4981106;28;20051;-81
2021/11/30 10:28:27;;;;;;;3.15;1.02;;;3.60;99.30;;;;;;4971455;28;20073;-80
2021/11/30 10:30:55;;;;;;;3.33;1.00;;;3.60;99.40;;;;;;4971081;28;20054;-82
2021/11/30 10:33:25;;;;;;;3.42;1.17;;;3.60;99.50;;;;;;4969582;28;20488;-80
2021/11/30 10:35:55;;;;;;;2.20;0.98;;;3.60;99.50;;;;;;4970388;28;20488;-81
2021/11/30 10:38:32;;;;;;;2.85;1.00;;;3.70;99.50;;;;;;4970848;28;20057;-82
2021/11/30 10:41:13;;;;;;;2.72;1.00;;;3.60;99.70;;;;;;4970219;28;20046;-82
2021/11/30 10:43:53;;;;;;;2.47;0.80;;;3.70;99.60;;;;;;4971134;28;20094;-82
2021/11/30 10:46:27;;;;;;;2.85;0.88;;;3.70;99.70;;;;;;4970233;28;20057;-79
2021/11/30 10:48:55;;;;;;;2.25;0.90;;;3.70;99.70;;;;;;4970360;28;20133;-80
2021/11/30 10:51:23;;;;;;;1.67;0.70;;;3.80;99.90;;;;;;4974845;28;20050;-81
2021/11/30 10:53:56;;;;;;;2.45;0.93;;;3.80;99.90;;;;;;4976903;28;20142;-82
2021/11/30 10:56:24;;;;;;;3.42;0.90;;;3.80;99.90;;;;;;4970834;28;20627;-83
2021/11/30 10:58:55;;;;;;;2.97;0.90;;;3.80;99.90;;;;;;4990361;28;20052;-83
2021/11/30 11:01:25;;;;;;;1.35;0.60;;;3.80;99.90;;;;;;4994100;28;20136;-80
2021/11/30 11:04:04;;;;;;;3.70;1.00;;;3.80;99.90;;;;;;4994996;28;20173;-78
2021/11/30 11:06:32;;;;;;;2.97;0.80;;;3.80;99.90;;;;;;4981169;28;20062;-78
2021/11/30 11:09:04;;;;;;;2.03;0.70;;;3.80;99.90;;;;;;4974504;28;20142;-82
2021/11/30 11:11:35;;;;;;;2.08;1.00;;;3.80;99.90;;;;;;4974655;28;20046;-81
2021/11/30 11:14:05;;;;;;;3.90;0.75;;;3.80;99.90;;;;;;4976183;28;20421;-79
2021/11/30 11:16:35;;;;;;;1.50;0.60;;;3.80;99.90;;;;;;4977568;28;20142;-82
2021/11/30 11:19:05;;;;;;;2.33;0.70;;;3.80;99.90;;;;;;4976134;28;20106;-79
2021/11/30 11:21:35;;;;;;;1.50;0.63;;;3.80;99.90;;;;;;4976198;28;20051;-83
2021/11/30 11:24:07;;;;;;;10.80;4.78;;;3.80;99.90;;;;;;4975176;28;20138;-80
2021/11/30 11:26:39;;;;;;;2.67;0.98;;;3.80;99.90;;;;;;4976361;28;20051;-80
2021/11/30 11:29:12;;;;;;;1.65;0.80;;;3.70;99.90;;;;;;4976180;28;20074;-79
2021/11/30 11:31:42;;;;;;;2.53;0.73;;;3.80;99.90;;;;;;4975836;28;20129;-78
2021/11/30 11:34:11;;;;;;;2.05;0.80;;;3.70;99.90;;;;;;4974960;28;20130;-80
2021/11/30 11:36:41;;;;;;;1.70;0.77;;;3.70;99.90;;;;;;4963863;28;20066;-86
2021/11/30 11:39:08;;;;;;;2.72;0.80;;;3.80;99.90;;;;;;4972432;28;20122;-80
2021/11/30 11:41:36;;;;;;;2.15;0.77;;;3.80;99.90;;;;;;4968538;28;20161;-82
2021/11/30 11:44:03;;;;;;;2.38;0.90;;;3.80;99.90;;;;;;4955272;29;20560;-81
2021/11/30 11:46:37;;;;;;;2.53;0.90;;;3.80;99.90;;;;;;4954130;29;20101;-81
2021/11/30 11:49:07;;;;;;;2.22;0.88;;;3.80;99.90;;;;;;4954360;29;20051;-81
2021/11/30 11:51:36;;;;;;;2.70;0.80;;;3.80;99.90;;;;;;4954092;29;20106;-80
2021/11/30 11:54:05;;;;;;;2.17;0.60;;;3.80;99.90;;;;;;4961778;28;20090;-82
2021/11/30 11:56:34;;;;;;;1.73;0.70;;;3.80;99.90;;;;;;4973808;28;20231;-80
2021/11/30 11:59:16;;;;;;;1.98;0.70;;;3.80;99.90;;;;;;4972977;28;20057;-81
2021/11/30 12:01:48;;;;;;;1.52;0.60;;;3.80;99.90;;;;;;4959625;28;20052;-82
2021/11/30 12:04:18;;;;;;;2.35;0.70;;;3.80;99.90;;;;;;4959984;28;20083;-84
2021/11/30 12:06:58;;;;;;;2.47;0.80;;;3.80;99.90;;;;;;4954009;28;20051;-82
2021/11/30 12:09:29;;;;;;;1.85;0.70;;;3.90;99.90;;;;;;4974284;28;20062;-82
2021/11/30 12:12:00;;;;;;;1.92;0.80;;;3.90;99.90;;;;;;4972177;28;20479;-81
2021/11/30 12:14:38;;;;;;;2.35;1.00;;;3.90;99.90;;;;;;4973619;28;20129;-81
2021/11/30 12:17:26;;;;;;;2.35;0.70;;;3.90;99.90;;;;;;4975482;28;20504;-79
2021/11/30 12:20:10;;;;;;;2.60;0.80;;;4.00;99.90;;;;;;4974479;28;20051;-79
2021/11/30 12:22:49;;;;;;;1.92;0.63;;;4.00;99.90;;;;;;4974525;28;20137;-79
2021/11/30 12:25:45;;;;;;;3.38;1.00;;;4.00;99.90;;;;;;4959584;28;20052;-82
2021/11/30 12:28:33;;;;;;;1.83;0.70;;;4.00;99.90;;;;;;4974099;28;20054;-83
2021/11/30 12:31:00;;;;;;;2.47;0.88;;;4.00;99.90;;;;;;4958999;29;20142;-83
2021/11/30 12:33:33;;;;;;;1.48;0.70;;;4.00;99.90;;;;;;4964729;28;20089;-82
2021/11/30 12:36:05;;;;;;;2.20;0.73;;;3.90;99.90;;;;;;4974320;28;20133;-81
2021/11/30 12:38:36;;;;;;;2.70;0.80;;;3.90;99.90;;;;;;4975639;28;20070;-82
2021/11/30 12:41:36;;;;;;;2.92;0.70;;;4.00;99.90;;;;;;4975773;28;20047;-83
2021/11/30 12:44:15;;;;;;;1.80;0.77;;;4.00;99.90;;;;;;4974288;28;20051;-82
2021/11/30 12:46:44;;;;;;;3.63;0.80;;;3.90;99.90;;;;;;4976127;28;20050;-80
2021/11/30 12:49:31;;;;;;;1.67;0.70;;;3.90;99.90;;;;;;4974409;28;20150;-82
2021/11/30 12:52:15;;;;;;;1.80;0.70;;;3.90;99.90;;;;;;4956748;28;20531;-81
2021/11/30 12:54:46;;;;;;;2.17;0.80;;;3.80;99.90;;;;;;4955265;29;20087;-81
2021/11/30 12:57:19;;;;;;;4.05;0.75;;;3.80;99.90;;;;;;4962093;28;20157;-82
2021/11/30 13:00:02;;;;;;;2.45;0.75;;;3.80;99.90;;;;;;4974230;28;20108;-83
2021/11/30 13:02:34;;;;;;;2.10;0.88;;;3.80;99.90;;;;;;4975317;28;20106;-84
2021/11/30 13:05:25;;;;;;;5.13;2.00;;;3.80;99.90;;;;;;4975556;28;20059;-79
2021/11/30 13:08:08;;;;;;;2.75;1.08;;;3.70;99.90;;;;;;4974737;28;20720;-83
2021/11/30 13:10:42;;;;;;;2.38;0.82;;;3.70;99.90;;;;;;4974462;28;20078;-82
2021/11/30 13:13:19;;;;;;;2.92;0.90;;;3.70;99.90;;;;;;4973673;28;20047;-80
2021/11/30 13:15:52;;;;;;;2.08;0.80;;;3.70;99.90;;;;;;4983527;28;20060;-81
2021/11/30 13:18:20;;;;;;;2.10;0.70;;;3.70;99.90;;;;;;4992913;28;20047;-80
2021/11/30 13:20:48;;;;;;;2.22;0.90;;;3.60;99.90;;;;;;4989496;28;20088;-82
2021/11/30 13:23:16;;;;;;;1.73;0.68;;;3.60;99.90;;;;;;4987210;28;20042;-80